Time;durP1;ratioP1;P1;durP2;ratioP2;P2;SDS_P1;SDS_P2;PMS_P1;PMS_P2;Temp;Humidity;BMP_temperature;BMP_pressure;BME280_temperature;BME280_humidity;BME280_pressure;Samples;Min_cycle;Max_cycle;Signal;HPM_P1;HPM_P2
2023/07/22 00:00:55;;;;;;;7.82;3.28;;;13.90;99.90;;;;;;4992914;28;20074;-34
2023/07/22 00:03:22;;;;;;;6.13;3.70;;;13.90;99.90;;;;;;5002902;28;20050;-34
2023/07/22 00:05:48;;;;;;;6.60;3.38;;;13.90;99.90;;;;;;5001732;28;20601;-34
2023/07/22 00:08:14;;;;;;;8.57;2.97;;;13.90;99.90;;;;;;4998175;28;20049;-34
2023/07/22 00:10:43;;;;;;;8.23;3.40;;;13.90;99.90;;;;;;5005223;28;20053;-34
2023/07/22 00:13:08;;;;;;;7.88;3.55;;;13.90;99.90;;;;;;4992391;28;20054;-34
2023/07/22 00:15:34;;;;;;;6.50;2.80;;;13.90;99.90;;;;;;4990361;28;20510;-34
2023/07/22 00:18:00;;;;;;;6.63;3.30;;;13.90;99.90;;;;;;5000001;28;20046;-34
2023/07/22 00:20:26;;;;;;;6.13;3.55;;;13.80;99.90;;;;;;4997330;28;20412;-34
2023/07/22 00:22:52;;;;;;;7.53;3.50;;;13.80;99.90;;;;;;4999513;28;20476;-34
2023/07/22 00:25:18;;;;;;;6.35;3.30;;;13.80;99.90;;;;;;4993721;28;20054;-34
2023/07/22 00:27:43;;;;;;;9.60;3.78;;;13.80;99.90;;;;;;5004898;28;20046;-34
2023/07/22 00:30:09;;;;;;;7.65;3.22;;;13.80;99.90;;;;;;4997006;28;20072;-34
2023/07/22 00:32:39;;;;;;;5.80;3.10;;;13.70;99.90;;;;;;4996824;28;20100;-34
2023/07/22 00:35:05;;;;;;;8.45;3.50;;;13.70;99.90;;;;;;5007136;28;20154;-33
2023/07/22 00:37:32;;;;;;;5.18;2.58;;;13.70;99.90;;;;;;4994030;28;20172;-34
2023/07/22 00:39:58;;;;;;;7.82;3.58;;;13.60;99.90;;;;;;5004952;28;20049;-33
2023/07/22 00:42:24;;;;;;;8.80;3.65;;;13.60;99.90;;;;;;5004397;28;20412;-34
2023/07/22 00:44:50;;;;;;;7.47;3.35;;;13.50;99.90;;;;;;5003457;28;20050;-33
2023/07/22 00:47:17;;;;;;;7.28;3.67;;;13.50;99.90;;;;;;5000075;28;20058;-34
2023/07/22 00:49:44;;;;;;;7.47;3.53;;;13.50;99.90;;;;;;4978456;28;20049;-34
2023/07/22 00:52:09;;;;;;;6.20;3.20;;;13.60;99.90;;;;;;4999290;28;20046;-34
2023/07/22 00:54:35;;;;;;;8.70;4.18;;;13.60;99.90;;;;;;4999603;28;20050;-34
2023/07/22 00:57:01;;;;;;;5.63;3.03;;;13.70;99.90;;;;;;4998882;28;20049;-34
2023/07/22 00:59:27;;;;;;;7.03;3.25;;;13.70;99.90;;;;;;4984735;28;20519;-34
2023/07/22 01:01:53;;;;;;;9.02;3.10;;;13.70;99.90;;;;;;4997673;28;20053;-34
2023/07/22 01:04:22;;;;;;;6.03;3.33;;;13.80;99.90;;;;;;5001467;28;20065;-34
2023/07/22 01:06:49;;;;;;;8.85;3.28;;;13.70;99.90;;;;;;4996947;28;20041;-34
2023/07/22 01:09:15;;;;;;;8.00;3.30;;;13.80;99.90;;;;;;4995724;28;20070;-34
2023/07/22 01:11:40;;;;;;;6.75;3.13;;;13.80;99.90;;;;;;5000085;28;20471;-34
2023/07/22 01:14:07;;;;;;;8.15;3.67;;;13.80;99.90;;;;;;4991870;28;20050;-34
2023/07/22 01:16:34;;;;;;;11.48;3.80;;;13.80;99.90;;;;;;4994187;28;20054;-34
2023/07/22 01:18:59;;;;;;;7.80;3.67;;;13.90;99.90;;;;;;4997105;28;20053;-34
2023/07/22 01:21:26;;;;;;;7.78;3.47;;;13.90;99.90;;;;;;5008371;28;20046;-34
2023/07/22 01:23:53;;;;;;;8.60;3.20;;;14.00;99.90;;;;;;4990640;28;20104;-34
2023/07/22 01:26:20;;;;;;;8.38;3.15;;;14.00;99.90;;;;;;4998138;28;20103;-34
2023/07/22 01:28:45;;;;;;;7.85;3.92;;;14.00;99.90;;;;;;5006053;28;20514;-34
2023/07/22 01:31:11;;;;;;;8.45;4.38;;;14.00;99.90;;;;;;4990529;28;20097;-34
2023/07/22 01:33:37;;;;;;;8.18;3.95;;;14.10;99.90;;;;;;4996219;28;20471;-34
2023/07/22 01:36:03;;;;;;;5.78;2.72;;;14.10;99.90;;;;;;4995219;28;20062;-34
2023/07/22 01:38:29;;;;;;;8.57;4.32;;;14.10;99.90;;;;;;5005552;28;20061;-34
2023/07/22 01:40:55;;;;;;;7.00;3.47;;;14.10;99.90;;;;;;4999244;28;20060;-34
2023/07/22 01:43:21;;;;;;;7.97;4.05;;;14.10;99.90;;;;;;5008796;28;20470;-34
2023/07/22 01:45:47;;;;;;;7.03;3.70;;;14.10;99.90;;;;;;4991403;28;20042;-34
2023/07/22 01:48:13;;;;;;;9.75;4.22;;;14.10;99.90;;;;;;4998910;28;20379;-34
2023/07/22 01:50:38;;;;;;;10.35;3.65;;;14.10;99.90;;;;;;5007726;28;20054;-35
2023/07/22 01:53:05;;;;;;;8.18;3.60;;;14.10;99.90;;;;;;4999978;28;20045;-35
2023/07/22 01:55:32;;;;;;;7.22;3.53;;;14.10;99.90;;;;;;5003369;28;20057;-35
2023/07/22 01:57:58;;;;;;;10.40;5.18;;;14.10;99.90;;;;;;4990471;28;20492;-34
2023/07/22 02:00:24;;;;;;;8.30;3.47;;;14.00;99.90;;;;;;4989456;28;20137;-35
2023/07/22 02:02:49;;;;;;;7.15;3.80;;;14.00;99.90;;;;;;5000549;28;20640;-35
2023/07/22 02:05:15;;;;;;;11.07;4.15;;;14.00;99.90;;;;;;4992888;28;20051;-35
2023/07/22 02:07:41;;;;;;;8.18;3.67;;;14.00;99.90;;;;;;4991347;28;20055;-34
2023/07/22 02:10:07;;;;;;;11.27;4.43;;;14.00;99.90;;;;;;5005688;28;20050;-35
2023/07/22 02:12:32;;;;;;;10.98;4.72;;;14.00;99.90;;;;;;5004690;28;20072;-35
2023/07/22 02:14:59;;;;;;;10.18;4.40;;;13.90;99.90;;;;;;4995917;28;20492;-35
2023/07/22 02:17:24;;;;;;;10.70;4.05;;;13.90;99.90;;;;;;4989201;28;20520;-35
2023/07/22 02:19:51;;;;;;;8.80;4.10;;;13.90;99.90;;;;;;4990134;28;20112;-35
2023/07/22 02:22:17;;;;;;;8.07;3.72;;;13.80;99.90;;;;;;5012605;28;20104;-35
2023/07/22 02:24:43;;;;;;;11.45;4.80;;;13.80;99.90;;;;;;4998183;28;20058;-35
2023/07/22 02:27:08;;;;;;;9.70;4.43;;;13.90;99.90;;;;;;4998486;28;20435;-35
2023/07/22 02:29:34;;;;;;;8.80;4.13;;;13.80;99.90;;;;;;5002275;28;20053;-35
2023/07/22 02:32:01;;;;;;;8.45;4.50;;;13.80;99.90;;;;;;4993240;28;20692;-35
2023/07/22 02:34:26;;;;;;;8.82;4.40;;;13.80;99.90;;;;;;4984878;28;20057;-35
2023/07/22 02:36:52;;;;;;;7.13;3.83;;;13.80;99.90;;;;;;4993592;28;20050;-35
2023/07/22 02:39:18;;;;;;;10.48;4.38;;;13.80;99.90;;;;;;4991234;28;20054;-35
2023/07/22 02:41:43;;;;;;;11.77;4.88;;;13.80;99.90;;;;;;4990657;28;20137;-35
2023/07/22 02:44:09;;;;;;;10.43;4.20;;;13.80;99.90;;;;;;4996313;28;20488;-35
2023/07/22 02:46:35;;;;;;;8.70;4.28;;;13.80;99.90;;;;;;5006615;28;20049;-35
2023/07/22 02:49:00;;;;;;;8.13;4.32;;;13.80;99.90;;;;;;4998885;28;20046;-35
2023/07/22 02:51:26;;;;;;;8.10;4.57;;;13.80;99.90;;;;;;4988910;28;20054;-35
2023/07/22 02:53:52;;;;;;;9.85;4.40;;;13.80;99.90;;;;;;4986930;28;20085;-35
2023/07/22 02:56:17;;;;;;;8.63;4.20;;;13.80;99.90;;;;;;5001943;28;20053;-35
2023/07/22 02:58:43;;;;;;;11.38;4.32;;;13.80;99.90;;;;;;4994704;28;20104;-35
2023/07/22 03:01:10;;;;;;;10.95;5.28;;;13.80;99.90;;;;;;4988802;28;20568;-35
2023/07/22 03:03:37;;;;;;;10.95;4.82;;;13.90;99.90;;;;;;5003013;28;20057;-35
2023/07/22 03:06:04;;;;;;;10.57;4.03;;;13.90;99.90;;;;;;4993653;28;20072;-35
2023/07/22 03:08:29;;;;;;;8.57;4.13;;;13.90;99.90;;;;;;5002479;28;20534;-35
2023/07/22 03:10:55;;;;;;;10.85;4.68;;;13.80;99.90;;;;;;4991247;28;20039;-35
2023/07/22 03:13:21;;;;;;;9.07;4.60;;;13.90;99.90;;;;;;4981465;28;20069;-35
2023/07/22 03:15:47;;;;;;;9.52;5.03;;;13.90;99.90;;;;;;4984381;28;20435;-35
2023/07/22 03:18:13;;;;;;;8.88;4.63;;;13.90;99.90;;;;;;4998258;28;20054;-35
2023/07/22 03:20:39;;;;;;;7.78;4.18;;;13.90;99.90;;;;;;4986242;28;20053;-35
2023/07/22 03:23:06;;;;;;;10.57;4.40;;;13.80;99.90;;;;;;5002959;28;20046;-35
2023/07/22 03:25:32;;;;;;;9.38;4.15;;;13.90;99.90;;;;;;4993780;28;20062;-35
2023/07/22 03:28:03;;;;;;;8.35;4.00;;;13.80;99.90;;;;;;4992751;28;20066;-35
2023/07/22 03:30:29;;;;;;;9.88;4.45;;;13.90;99.90;;;;;;5000302;28;20416;-35
2023/07/22 03:32:54;;;;;;;7.13;3.83;;;13.90;99.90;;;;;;4992874;28;20046;-35
2023/07/22 03:35:20;;;;;;;9.85;4.07;;;13.90;99.90;;;;;;4996063;28;20042;-35
2023/07/22 03:37:45;;;;;;;8.82;3.85;;;13.90;99.90;;;;;;4992310;28;20081;-35
2023/07/22 03:40:17;;;;;;;7.32;3.58;;;14.00;99.90;;;;;;4991127;28;20113;-35
2023/07/22 03:42:42;;;;;;;8.80;4.45;;;14.00;99.90;;;;;;5003614;28;20125;-35
2023/07/22 03:45:11;;;;;;;8.55;4.13;;;14.00;99.90;;;;;;4989097;28;20201;-35
2023/07/22 03:47:39;;;;;;;7.97;4.40;;;14.00;99.90;;;;;;5002215;28;20399;-35
2023/07/22 03:50:05;;;;;;;8.73;4.15;;;14.00;99.90;;;;;;4991291;28;20054;-35
2023/07/22 03:52:31;;;;;;;9.93;5.32;;;14.00;99.90;;;;;;4989728;28;20062;-35
2023/07/22 03:54:57;;;;;;;9.57;4.82;;;14.00;99.90;;;;;;5004838;28;20054;-35
2023/07/22 03:57:29;;;;;;;9.10;4.47;;;14.00;99.90;;;;;;4995618;28;20500;-35
2023/07/22 03:59:55;;;;;;;;;;;14.00;99.90;;;;;;5006428;28;20053;-35
2023/07/22 04:02:21;;;;;;;11.05;4.75;;;14.00;99.90;;;;;;4991645;28;19939;-35
2023/07/22 04:04:47;;;;;;;12.88;5.70;;;14.00;99.90;;;;;;4989093;28;20501;-35
2023/07/22 04:07:13;;;;;;;10.45;5.18;;;14.00;99.90;;;;;;5003670;28;20064;-35
2023/07/22 04:09:38;;;;;;;9.85;5.40;;;14.00;99.90;;;;;;5000654;28;20057;-35
2023/07/22 04:12:04;;;;;;;9.15;4.57;;;14.00;99.90;;;;;;4992606;28;20053;-35
2023/07/22 04:14:30;;;;;;;9.60;4.93;;;14.00;99.90;;;;;;5002491;28;20140;-35
2023/07/22 04:16:56;;;;;;;9.73;4.68;;;14.00;99.90;;;;;;4985377;28;20531;-35
2023/07/22 04:19:21;;;;;;;10.45;5.40;;;14.00;99.90;;;;;;5003683;28;20052;-35
2023/07/22 04:21:47;;;;;;;8.43;4.60;;;14.00;99.90;;;;;;4999041;28;20042;-35
2023/07/22 04:24:13;;;;;;;12.90;5.25;;;14.10;99.90;;;;;;4996153;28;20049;-35
2023/07/22 04:26:40;;;;;;;8.27;4.40;;;14.10;99.90;;;;;;4997010;28;20252;-35
2023/07/22 04:29:05;;;;;;;9.77;5.30;;;14.10;99.90;;;;;;4994899;28;20122;-35
2023/07/22 04:31:34;;;;;;;11.30;5.78;;;14.20;99.90;;;;;;5005322;28;20800;-35
2023/07/22 04:33:59;;;;;;;10.60;5.00;;;14.10;99.90;;;;;;4988488;28;20141;-36
2023/07/22 04:36:25;;;;;;;12.13;5.20;;;14.00;99.90;;;;;;4984414;28;20233;-35
2023/07/22 04:38:51;;;;;;;10.48;5.05;;;14.00;99.90;;;;;;5000404;28;20069;-35
2023/07/22 04:41:17;;;;;;;9.55;4.80;;;13.90;99.90;;;;;;4983711;28;20531;-35
2023/07/22 04:43:42;;;;;;;11.00;5.57;;;13.90;99.90;;;;;;4993789;28;20137;-35
2023/07/22 04:46:08;;;;;;;10.88;5.13;;;13.90;99.90;;;;;;4993226;28;20519;-35
2023/07/22 04:48:34;;;;;;;11.75;5.38;;;13.90;99.90;;;;;;4994722;28;20070;-35
2023/07/22 04:51:00;;;;;;;8.60;4.65;;;13.90;99.90;;;;;;4991067;28;20056;-35
2023/07/22 04:53:26;;;;;;;13.63;5.95;;;14.00;99.90;;;;;;4989741;28;20497;-35
2023/07/22 04:55:51;;;;;;;9.50;5.20;;;13.90;99.90;;;;;;4984561;28;20400;-35
2023/07/22 04:58:17;;;;;;;13.30;4.97;;;14.00;99.90;;;;;;4999400;28;20546;-35
2023/07/22 05:00:43;;;;;;;10.13;5.00;;;14.00;99.90;;;;;;4992491;28;20045;-35
2023/07/22 05:03:09;;;;;;;10.30;5.05;;;14.00;99.90;;;;;;4991938;28;20042;-35
2023/07/22 05:05:36;;;;;;;11.13;5.50;;;14.00;99.90;;;;;;4987039;28;20549;-35
2023/07/22 05:08:01;;;;;;;9.18;4.53;;;14.00;99.90;;;;;;4985011;28;20064;-35
2023/07/22 05:10:28;;;;;;;9.88;5.10;;;14.10;99.90;;;;;;4997330;28;20046;-35
2023/07/22 05:12:54;;;;;;;8.60;5.03;;;14.10;99.90;;;;;;4990306;28;20138;-35
2023/07/22 05:15:20;;;;;;;9.43;4.68;;;14.10;99.90;;;;;;4992631;28;20452;-35
2023/07/22 05:17:46;;;;;;;10.65;4.80;;;14.10;99.90;;;;;;4995664;28;20064;-35
2023/07/22 05:20:15;;;;;;;10.13;5.05;;;14.10;99.90;;;;;;4994416;28;20046;-35
2023/07/22 05:22:41;;;;;;;10.95;5.53;;;14.10;99.90;;;;;;4993655;28;20196;-35
2023/07/22 05:25:07;;;;;;;8.85;4.88;;;14.10;99.90;;;;;;4984929;28;20054;-35
2023/07/22 05:27:33;;;;;;;9.68;5.53;;;14.10;99.90;;;;;;4978795;28;20407;-35
2023/07/22 05:30:00;;;;;;;13.25;4.95;;;14.10;99.90;;;;;;4982080;28;20057;-35
2023/07/22 05:32:26;;;;;;;8.70;4.68;;;14.10;99.90;;;;;;4983960;28;20082;-35
2023/07/22 05:34:51;;;;;;;11.15;5.60;;;14.10;99.90;;;;;;4981557;28;20042;-35
2023/07/22 05:37:17;;;;;;;12.68;5.38;;;14.10;99.90;;;;;;4982443;28;20054;-35
2023/07/22 05:39:42;;;;;;;10.82;5.45;;;14.10;99.90;;;;;;4985926;28;20108;-35
2023/07/22 05:42:08;;;;;;;10.10;5.40;;;14.10;99.90;;;;;;4982424;28;20137;-35
2023/07/22 05:44:34;;;;;;;11.23;4.82;;;14.10;99.90;;;;;;4982156;28;20137;-35
2023/07/22 05:47:00;;;;;;;9.68;5.35;;;14.00;99.90;;;;;;4986326;28;20143;-35
2023/07/22 05:49:26;;;;;;;10.45;5.20;;;14.00;99.90;;;;;;4981897;28;20054;-35
2023/07/22 05:51:52;;;;;;;11.32;5.53;;;14.10;99.90;;;;;;4983593;28;20089;-35
2023/07/22 05:54:17;;;;;;;14.15;5.78;;;14.00;99.90;;;;;;4981862;28;20047;-35
2023/07/22 05:56:43;;;;;;;11.27;5.68;;;14.00;99.90;;;;;;4983152;28;20058;-35
2023/07/22 05:59:08;;;;;;;11.43;5.55;;;14.00;99.90;;;;;;4978401;28;20264;-36
2023/07/22 06:01:34;;;;;;;14.00;7.20;;;14.00;99.90;;;;;;4982730;28;20046;-35
2023/07/22 06:04:00;;;;;;;13.98;6.57;;;14.00;99.90;;;;;;4984947;28;20104;-36
2023/07/22 06:06:27;;;;;;;13.15;6.47;;;14.00;99.90;;;;;;4984443;28;20068;-35
2023/07/22 06:08:53;;;;;;;14.75;7.18;;;14.10;99.90;;;;;;4982128;28;20046;-36
2023/07/22 06:11:19;;;;;;;13.23;6.90;;;14.10;99.90;;;;;;4984721;28;20150;-35
2023/07/22 06:13:44;;;;;;;13.73;6.55;;;14.10;99.90;;;;;;4989657;28;20052;-35
2023/07/22 06:16:10;;;;;;;10.93;6.45;;;14.20;99.90;;;;;;4986449;28;20133;-35
2023/07/22 06:18:36;;;;;;;15.88;7.15;;;14.20;99.90;;;;;;4987708;28;20046;-35
2023/07/22 06:21:04;;;;;;;12.70;6.35;;;14.30;99.90;;;;;;4985035;28;20116;-35
2023/07/22 06:23:30;;;;;;;13.55;7.63;;;14.30;99.90;;;;;;4984658;28;20064;-35
2023/07/22 06:25:55;;;;;;;15.07;7.28;;;14.40;99.90;;;;;;4987223;28;20050;-35
2023/07/22 06:28:21;;;;;;;14.98;8.00;;;14.50;99.90;;;;;;4986801;28;20068;-35
2023/07/22 06:30:46;;;;;;;16.10;7.47;;;14.50;99.90;;;;;;4987460;28;20046;-35
2023/07/22 06:33:12;;;;;;;13.52;7.05;;;14.60;99.90;;;;;;4985627;28;20053;-35
2023/07/22 06:35:38;;;;;;;14.80;7.95;;;14.70;99.90;;;;;;4982712;28;20120;-35
2023/07/22 06:38:03;;;;;;;14.82;7.72;;;14.80;99.90;;;;;;4983141;28;20050;-35
2023/07/22 06:40:29;;;;;;;16.42;7.75;;;14.90;99.90;;;;;;4986205;28;20122;-35
2023/07/22 06:42:55;;;;;;;14.50;7.85;;;14.90;99.90;;;;;;4985187;28;20080;-35
2023/07/22 06:45:20;;;;;;;18.38;7.72;;;15.00;99.90;;;;;;4985712;28;20156;-35
2023/07/22 06:47:46;;;;;;;18.58;8.65;;;15.00;99.90;;;;;;4985723;28;20050;-35
2023/07/22 06:50:12;;;;;;;17.25;8.02;;;15.10;99.90;;;;;;4982850;28;20108;-35
2023/07/22 06:52:38;;;;;;;16.17;7.90;;;15.20;99.90;;;;;;4984731;28;20050;-35
2023/07/22 06:55:04;;;;;;;13.77;6.80;;;15.20;99.90;;;;;;4983623;28;20138;-35
2023/07/22 06:57:30;;;;;;;17.95;8.63;;;15.20;99.90;;;;;;4985394;28;20057;-35
2023/07/22 06:59:56;;;;;;;15.77;7.13;;;15.30;99.90;;;;;;4986388;28;20054;-35
2023/07/22 07:02:22;;;;;;;15.98;7.45;;;15.30;99.90;;;;;;4980623;28;20489;-35
2023/07/22 07:04:49;;;;;;;15.27;7.82;;;15.30;99.90;;;;;;4988727;28;20046;-35
2023/07/22 07:07:16;;;;;;;11.82;6.30;;;15.30;99.90;;;;;;4983834;28;20069;-35
2023/07/22 07:09:41;;;;;;;15.30;7.57;;;15.30;99.90;;;;;;4985316;28;20072;-35
2023/07/22 07:12:08;;;;;;;12.98;6.88;;;15.40;99.90;;;;;;4985807;28;20564;-35
2023/07/22 07:14:34;;;;;;;13.55;7.55;;;15.40;99.90;;;;;;4987385;28;20055;-35
2023/07/22 07:17:01;;;;;;;14.68;7.05;;;15.60;99.90;;;;;;4983224;28;20054;-34
2023/07/22 07:19:27;;;;;;;14.05;7.07;;;15.60;99.90;;;;;;4983458;28;20054;-35
2023/07/22 07:21:53;;;;;;;12.10;6.60;;;15.70;99.90;;;;;;4986376;28;20073;-35
2023/07/22 07:24:19;;;;;;;11.75;6.43;;;15.80;99.90;;;;;;4982419;28;20046;-34
2023/07/22 07:26:45;;;;;;;13.20;5.78;;;15.80;99.90;;;;;;4984974;28;20404;-34
2023/07/22 07:29:11;;;;;;;11.98;6.28;;;15.80;99.90;;;;;;4983606;28;20062;-34
2023/07/22 07:31:40;;;;;;;11.30;6.35;;;15.80;99.90;;;;;;4983059;28;20073;-35
2023/07/22 07:34:05;;;;;;;11.23;6.03;;;15.80;99.90;;;;;;4988501;28;20051;-36
2023/07/22 07:36:34;;;;;;;10.45;5.70;;;15.90;99.90;;;;;;4982474;28;20405;-35
2023/07/22 07:39:00;;;;;;;9.70;5.45;;;15.90;99.90;;;;;;4984073;28;20050;-35
2023/07/22 07:41:25;;;;;;;12.75;6.65;;;16.00;99.90;;;;;;4982723;28;20050;-35
2023/07/22 07:43:51;;;;;;;12.43;6.13;;;16.00;99.90;;;;;;4983488;28;20393;-35
2023/07/22 07:46:21;;;;;;;11.55;6.38;;;16.00;99.90;;;;;;4986106;28;20049;-35
2023/07/22 07:48:55;;;;;;;12.68;6.35;;;16.00;99.90;;;;;;4982443;28;20078;-35
2023/07/22 07:51:24;;;;;;;12.85;5.63;;;16.10;99.90;;;;;;4973998;28;20073;-35
2023/07/22 07:53:50;;;;;;;11.07;5.80;;;16.10;99.90;;;;;;4976809;28;20517;-35
2023/07/22 07:56:17;;;;;;;11.55;6.07;;;16.10;99.90;;;;;;4975965;28;20065;-35
2023/07/22 07:58:44;;;;;;;10.88;5.97;;;16.10;99.90;;;;;;4984520;28;20047;-35
2023/07/22 08:01:10;;;;;;;11.10;5.65;;;16.20;99.90;;;;;;4977779;28;20061;-35
2023/07/22 08:03:37;;;;;;;12.48;5.30;;;16.20;99.90;;;;;;4981803;28;20050;-35
2023/07/22 08:06:03;;;;;;;10.82;5.07;;;16.20;99.90;;;;;;4980934;28;20038;-35
2023/07/22 08:08:30;;;;;;;12.52;5.90;;;16.20;99.90;;;;;;4988289;28;20050;-36
2023/07/22 08:11:07;;;;;;;11.27;6.53;;;16.20;99.90;;;;;;4997921;28;20053;-36
2023/07/22 08:13:34;;;;;;;11.38;5.90;;;16.10;99.90;;;;;;4973596;28;20123;-36
2023/07/22 08:16:02;;;;;;;9.38;4.60;;;16.10;99.90;;;;;;4998937;28;20042;-35
2023/07/22 08:18:29;;;;;;;13.98;6.40;;;16.10;99.90;;;;;;4980161;28;20519;-35
2023/07/22 08:20:55;;;;;;;11.77;5.70;;;16.00;99.90;;;;;;4987401;28;20046;-35
2023/07/22 08:23:21;;;;;;;11.25;5.20;;;16.00;99.90;;;;;;4996744;28;20208;-35
2023/07/22 08:25:47;;;;;;;9.75;5.20;;;16.00;99.90;;;;;;4992114;28;20560;-35
2023/07/22 08:28:12;;;;;;;10.27;5.20;;;16.10;99.90;;;;;;4998328;28;20050;-35
2023/07/22 08:30:40;;;;;;;11.60;6.05;;;16.10;99.90;;;;;;4995066;28;20054;-36
2023/07/22 08:33:07;;;;;;;11.13;5.65;;;16.20;99.90;;;;;;4990531;28;20050;-36
2023/07/22 08:35:34;;;;;;;11.65;5.25;;;16.20;99.90;;;;;;4993008;28;20523;-36
2023/07/22 08:38:03;;;;;;;9.70;5.30;;;16.40;99.90;;;;;;4981356;28;20142;-37
2023/07/22 08:40:36;;;;;;;11.15;6.10;;;16.50;99.90;;;;;;4989544;28;20073;-36
2023/07/22 08:43:03;;;;;;;11.75;5.70;;;16.70;99.90;;;;;;4994192;28;20141;-36
2023/07/22 08:45:32;;;;;;;8.73;5.43;;;16.80;99.90;;;;;;4982807;28;20058;-36
2023/07/22 08:47:59;;;;;;;10.18;5.43;;;16.90;99.90;;;;;;4991782;28;20049;-36
2023/07/22 08:50:29;;;;;;;12.73;5.97;;;17.00;99.90;;;;;;4998066;28;20495;-36
2023/07/22 08:52:55;;;;;;;9.02;5.35;;;17.10;99.90;;;;;;4991328;28;20099;-36
2023/07/22 08:55:22;;;;;;;9.07;4.85;;;17.10;99.90;;;;;;4988575;28;20651;-36
2023/07/22 08:57:49;;;;;;;10.57;5.07;;;17.20;99.90;;;;;;4987055;28;20045;-36
2023/07/22 09:00:16;;;;;;;10.25;5.53;;;17.40;99.90;;;;;;5000248;28;20065;-36
2023/07/22 09:02:42;;;;;;;7.40;4.72;;;17.50;99.90;;;;;;4998782;28;20153;-36
2023/07/22 09:05:11;;;;;;;11.00;5.60;;;17.70;99.90;;;;;;4991734;28;21799;-35
2023/07/22 09:07:38;;;;;;;10.63;5.35;;;17.80;99.90;;;;;;4990600;28;20109;-36
2023/07/22 09:10:07;;;;;;;9.23;5.13;;;17.90;99.90;;;;;;4998851;28;20054;-36
2023/07/22 09:12:39;;;;;;;12.18;6.38;;;18.00;99.90;;;;;;4987844;28;20492;-36
2023/07/22 09:15:11;;;;;;;10.18;5.13;;;18.10;99.90;;;;;;4978505;28;20057;-36
2023/07/22 09:17:38;;;;;;;10.05;5.18;;;18.30;99.90;;;;;;4973115;28;20193;-36
2023/07/22 09:20:05;;;;;;;9.55;4.53;;;18.30;99.90;;;;;;4981122;28;20745;-36
2023/07/22 09:22:32;;;;;;;10.57;5.72;;;18.30;99.90;;;;;;4979658;28;20058;-36
2023/07/22 09:25:28;;;;;;;11.55;5.72;;;18.30;99.90;;;;;;4979083;28;20190;-36
2023/07/22 09:27:57;;;;;;;13.43;4.82;;;18.20;99.90;;;;;;4982745;28;20054;-36
2023/07/22 09:30:31;;;;;;;10.77;5.45;;;18.10;99.90;;;;;;4986103;28;20208;-36
2023/07/22 09:32:59;;;;;;;12.25;4.85;;;18.00;99.90;;;;;;4993583;28;20086;-36
2023/07/22 09:35:44;;;;;;;10.85;5.60;;;17.80;99.90;;;;;;4991911;28;20061;-36
2023/07/22 09:38:09;;;;;;;11.65;5.15;;;17.70;99.90;;;;;;5005866;28;20050;-36
2023/07/22 09:40:35;;;;;;;9.23;5.45;;;17.60;99.90;;;;;;4996809;28;20463;-35
2023/07/22 09:43:02;;;;;;;11.07;5.50;;;17.60;99.90;;;;;;4983400;28;20064;-36
2023/07/22 09:45:30;;;;;;;10.57;5.13;;;17.60;99.90;;;;;;5006384;28;20113;-36
2023/07/22 09:47:56;;;;;;;10.82;5.43;;;17.70;99.90;;;;;;4991904;28;20089;-36
2023/07/22 09:50:24;;;;;;;9.80;5.80;;;17.70;99.90;;;;;;4978561;28;20062;-36
2023/07/22 09:52:55;;;;;;;13.35;6.10;;;17.70;99.90;;;;;;4991542;28;20050;-35
2023/07/22 09:55:24;;;;;;;9.85;5.18;;;17.80;99.90;;;;;;4996169;28;20115;-36
2023/07/22 09:57:57;;;;;;;10.15;5.10;;;17.90;99.90;;;;;;5009027;28;20042;-36
2023/07/22 10:00:25;;;;;;;9.15;4.82;;;18.00;99.90;;;;;;5001785;28;20626;-36
2023/07/22 10:02:52;;;;;;;8.23;4.55;;;18.00;99.90;;;;;;4998841;28;20049;-36
2023/07/22 10:05:20;;;;;;;7.45;4.65;;;18.10;99.90;;;;;;4992653;28;20050;-36
2023/07/22 10:07:51;;;;;;;10.82;4.55;;;18.10;99.90;;;;;;4971085;28;20054;-36
2023/07/22 10:10:30;;;;;;;9.02;4.82;;;18.20;99.90;;;;;;4969548;28;20091;-36
2023/07/22 10:12:57;;;;;;;9.88;4.38;;;18.20;99.90;;;;;;4985525;28;20076;-35
2023/07/22 10:15:25;;;;;;;8.40;4.28;;;18.20;99.90;;;;;;4989281;28;20725;-36
2023/07/22 10:17:51;;;;;;;10.20;4.75;;;18.20;99.90;;;;;;4992783;28;20161;-36
2023/07/22 10:20:19;;;;;;;9.30;3.33;;;18.30;99.90;;;;;;4984381;28;20467;-36
2023/07/22 10:22:47;;;;;;;7.32;3.15;;;18.20;99.90;;;;;;4982837;28;20558;-36
2023/07/22 10:25:18;;;;;;;6.38;3.30;;;18.10;99.90;;;;;;4980197;28;20062;-36
2023/07/22 10:27:47;;;;;;;9.73;3.60;;;18.00;99.90;;;;;;4996912;28;20634;-36
2023/07/22 10:30:15;;;;;;;7.65;3.33;;;18.00;99.90;;;;;;4985620;28;20058;-40
2023/07/22 10:32:46;;;;;;;7.03;3.22;;;17.90;99.90;;;;;;5006281;28;20049;-36
2023/07/22 10:35:33;;;;;;;8.93;3.65;;;17.80;99.90;;;;;;5001677;28;20084;-36
2023/07/22 10:38:13;;;;;;;8.85;3.70;;;17.70;99.90;;;;;;5005134;28;20057;-36
2023/07/22 10:40:45;;;;;;;6.90;3.80;;;17.40;99.90;;;;;;5000848;28;20064;-35
2023/07/22 10:43:11;;;;;;;9.63;4.68;;;17.10;99.90;;;;;;5008338;28;20576;-36
2023/07/22 10:45:41;;;;;;;6.75;4.30;;;16.90;99.90;;;;;;5008609;28;20073;-36
2023/07/22 10:48:09;;;;;;;7.75;5.03;;;16.60;99.90;;;;;;4997548;28;20060;-36
2023/07/22 10:50:51;;;;;;;8.75;5.35;;;16.40;99.90;;;;;;4991839;28;20054;-36
2023/07/22 10:53:20;;;;;;;8.98;5.38;;;16.30;99.90;;;;;;5001141;28;20586;-36
2023/07/22 10:56:04;;;;;;;9.68;5.10;;;16.10;99.90;;;;;;5000321;28;20127;-37
2023/07/22 10:58:54;;;;;;;10.18;5.20;;;16.00;99.90;;;;;;5006065;28;20054;-36
2023/07/22 11:01:28;;;;;;;8.35;5.60;;;16.00;99.90;;;;;;4994185;28;20053;-36
2023/07/22 11:04:24;;;;;;;9.55;5.47;;;16.10;99.90;;;;;;4998695;28;20408;-36
2023/07/22 11:06:50;;;;;;;9.88;5.50;;;16.20;99.90;;;;;;4988502;28;20576;-36
2023/07/22 11:09:27;;;;;;;8.52;5.28;;;16.30;99.90;;;;;;4989203;28;20042;-36
2023/07/22 11:11:58;;;;;;;8.88;5.53;;;16.40;99.90;;;;;;5005389;28;20057;-36
2023/07/22 11:14:26;;;;;;;9.73;5.13;;;16.50;99.90;;;;;;5006793;28;20545;-36
2023/07/22 11:16:53;;;;;;;8.60;4.97;;;16.50;99.90;;;;;;4996413;28;20053;-36
2023/07/22 11:19:20;;;;;;;8.48;5.45;;;16.50;99.90;;;;;;5002531;28;20103;-36
2023/07/22 11:21:47;;;;;;;11.95;5.40;;;16.50;99.90;;;;;;5006466;28;20492;-36
2023/07/22 11:24:13;;;;;;;11.10;5.07;;;16.60;99.90;;;;;;4995761;28;20504;-36
2023/07/22 11:26:40;;;;;;;7.60;4.78;;;16.60;99.90;;;;;;4993333;28;20085;-36
2023/07/22 11:29:07;;;;;;;7.28;4.97;;;16.70;99.90;;;;;;5005267;28;20078;-36
2023/07/22 11:31:42;;;;;;;7.78;5.30;;;16.70;99.90;;;;;;5006525;28;20046;-35
2023/07/22 11:34:08;;;;;;;9.70;6.25;;;16.80;99.90;;;;;;4992800;28;20081;-36
2023/07/22 11:36:35;;;;;;;8.40;6.07;;;16.80;99.90;;;;;;4993316;28;20050;-35
2023/07/22 11:39:09;;;;;;;8.25;5.88;;;16.80;99.90;;;;;;4996384;28;20412;-36
2023/07/22 11:41:36;;;;;;;7.90;6.07;;;16.80;99.90;;;;;;4998713;28;20514;-36
2023/07/22 11:44:08;;;;;;;8.77;5.05;;;16.80;99.90;;;;;;4994539;28;20542;-36
2023/07/22 11:46:35;;;;;;;8.05;5.30;;;16.80;99.90;;;;;;4999812;28;20045;-36
2023/07/22 11:49:02;;;;;;;6.70;4.40;;;16.70;99.90;;;;;;5007189;28;20061;-36
2023/07/22 11:51:28;;;;;;;6.22;4.45;;;16.70;99.90;;;;;;5004428;28;20500;-37
2023/07/22 11:53:55;;;;;;;5.30;3.40;;;16.60;99.90;;;;;;5001111;28;20069;-36
2023/07/22 11:56:26;;;;;;;8.27;5.63;;;16.60;99.90;;;;;;4988199;28;20066;-35
2023/07/22 11:58:54;;;;;;;7.70;5.28;;;16.40;99.90;;;;;;5002364;28;20042;-36
2023/07/22 12:01:20;;;;;;;6.85;4.63;;;16.30;99.90;;;;;;4987380;28;20046;-36
2023/07/22 12:03:46;;;;;;;6.60;4.35;;;16.20;99.90;;;;;;4987671;28;20050;-36
2023/07/22 12:06:12;;;;;;;5.97;3.03;;;16.10;99.90;;;;;;5005900;28;20466;-36
2023/07/22 12:08:49;;;;;;;6.65;3.05;;;16.00;99.90;;;;;;4987852;28;20050;-36
2023/07/22 12:11:21;;;;;;;5.55;2.95;;;16.00;99.90;;;;;;4986863;28;20147;-36
2023/07/22 12:13:50;;;;;;;5.43;2.55;;;16.00;99.90;;;;;;4987811;28;20039;-36
2023/07/22 12:16:25;;;;;;;4.68;3.15;;;16.00;99.90;;;;;;4995594;28;20046;-36
2023/07/22 12:18:54;;;;;;;5.60;2.58;;;16.00;99.90;;;;;;4989476;28;20122;-36
2023/07/22 12:21:19;;;;;;;4.53;2.38;;;16.00;99.90;;;;;;4993427;28;20065;-36
2023/07/22 12:23:46;;;;;;;3.92;2.53;;;16.10;99.90;;;;;;4992955;28;20046;-36
2023/07/22 12:26:11;;;;;;;5.43;2.35;;;16.10;99.90;;;;;;4987760;28;20061;-36
2023/07/22 12:28:37;;;;;;;4.10;2.35;;;16.10;99.90;;;;;;4986737;28;20050;-36
2023/07/22 12:31:03;;;;;;;4.82;2.20;;;16.10;99.90;;;;;;5006114;28;20484;-36
2023/07/22 12:33:29;;;;;;;6.72;2.72;;;16.10;99.90;;;;;;5006294;28;20054;-36
2023/07/22 12:35:55;;;;;;;7.22;3.13;;;16.10;99.90;;;;;;4983281;28;20567;-36
2023/07/22 12:38:21;;;;;;;4.90;2.42;;;16.10;99.90;;;;;;4991155;28;20047;-36
2023/07/22 12:40:47;;;;;;;6.38;2.47;;;16.20;99.90;;;;;;4989514;28;20050;-36
2023/07/22 12:43:12;;;;;;;5.80;2.97;;;16.20;99.90;;;;;;4994293;28;20049;-36